createdAt,value
2018-09-19T00:01:50.322Z,20.38
2018-09-19T00:02:50.265Z,20.46
2018-09-19T00:04:44.449Z,20.46
2018-09-19T00:05:44.426Z,20.50
2018-09-19T00:07:38.743Z,20.50
2018-09-19T00:08:38.703Z,20.37
2018-09-19T00:10:32.869Z,20.35
2018-09-19T00:11:32.900Z,20.34
2018-09-19T00:13:27.040Z,20.37
2018-09-19T00:14:26.970Z,20.35
2018-09-19T00:16:21.142Z,20.35
2018-09-19T00:17:21.167Z,20.41
2018-09-19T00:19:15.850Z,20.35
2018-09-19T00:20:15.891Z,20.33
2018-09-19T00:22:10.478Z,20.35
2018-09-19T00:23:14.216Z,20.33
2018-09-19T00:25:05.240Z,20.31
2018-09-19T00:26:05.146Z,20.42
2018-09-19T00:27:59.824Z,20.48
2018-09-19T00:28:59.821Z,20.46
2018-09-19T00:30:54.037Z,20.33
2018-09-19T00:31:54.002Z,20.48
2018-09-19T00:33:48.649Z,20.46
2018-09-19T00:34:48.667Z,20.48
2018-09-19T00:36:43.431Z,20.41
2018-09-19T00:37:43.342Z,20.41
2018-09-19T00:39:37.544Z,20.44
2018-09-19T00:40:38.217Z,20.37
2018-09-19T00:42:32.711Z,20.30
2018-09-19T00:43:32.703Z,20.20
2018-09-19T00:45:26.951Z,20.20
2018-09-19T00:46:26.952Z,20.07
2018-09-19T00:48:21.746Z,20.23
2018-09-19T00:49:21.589Z,20.27
2018-09-19T00:51:15.936Z,20.30
2018-09-19T00:52:16.241Z,20.35
2018-09-19T00:54:10.809Z,20.41
2018-09-19T00:55:11.012Z,20.20
2018-09-19T00:57:05.656Z,20.22
2018-09-19T00:58:06.051Z,20.26
2018-09-19T01:00:00.053Z,20.20
2018-09-19T01:01:00.168Z,20.37
2018-09-19T01:02:56.411Z,20.22
2018-09-19T01:03:54.880Z,20.22
2018-09-19T01:05:49.079Z,20.27
2018-09-19T01:06:49.157Z,20.13
2018-09-19T01:08:43.764Z,20.16
2018-09-19T01:09:44.249Z,20.12
2018-09-19T01:11:38.697Z,20.00
2018-09-19T01:12:38.872Z,20.02
2018-09-19T01:14:33.141Z,19.95
2018-09-19T01:15:33.508Z,19.94
2018-09-19T01:18:03.493Z,20.02
2018-09-19T01:19:03.635Z,20.08
2018-09-19T01:20:57.867Z,20.08
2018-09-19T01:21:58.126Z,20.04
2018-09-19T01:23:52.955Z,20.05
2018-09-19T01:24:52.906Z,19.95
2018-09-19T01:26:47.159Z,20.04
2018-09-19T01:27:47.493Z,19.89
2018-09-19T01:29:42.248Z,19.94
2018-09-19T01:30:42.181Z,19.98
2018-09-19T01:32:36.861Z,19.82
2018-09-19T01:33:39.522Z,19.71
2018-09-19T01:35:31.823Z,19.79
2018-09-19T01:36:31.971Z,19.75
2018-09-19T01:38:26.341Z,19.71
2018-09-19T01:39:26.622Z,19.68
2018-09-19T01:41:20.911Z,19.98
2018-09-19T01:42:20.936Z,19.86
2018-09-19T01:44:15.330Z,19.89
2018-09-19T01:45:15.617Z,19.82
2018-09-19T01:47:10.134Z,19.78
2018-09-19T01:48:10.205Z,19.65
2018-09-19T01:50:04.502Z,19.75
2018-09-19T01:51:05.372Z,19.70
2018-09-19T01:53:24.268Z,19.61
2018-09-19T01:54:24.210Z,19.62
2018-09-19T01:56:18.779Z,19.57
2018-09-19T01:57:18.349Z,19.57
2018-09-19T01:59:12.574Z,19.60
2018-09-19T02:00:12.896Z,19.61
2018-09-19T02:02:06.843Z,19.67
2018-09-19T02:03:07.099Z,19.70
2018-09-19T02:05:13.429Z,19.65
2018-09-19T02:06:13.693Z,19.61
2018-09-19T02:08:07.839Z,19.50
2018-09-19T02:09:08.250Z,19.61
2018-09-19T02:11:02.776Z,19.62
2018-09-19T02:12:02.892Z,19.58
2018-09-19T02:13:56.749Z,19.52
2018-09-19T02:14:57.544Z,19.50
2018-09-19T02:16:51.699Z,19.55
2018-09-19T02:17:51.829Z,19.28
2018-09-19T02:19:46.293Z,19.46
2018-09-19T02:20:46.869Z,19.50
2018-09-19T02:22:41.317Z,19.49
2018-09-19T02:23:41.566Z,19.47
2018-09-19T02:25:35.243Z,19.40
2018-09-19T02:26:35.719Z,19.42
2018-09-19T02:28:29.904Z,19.39
2018-09-19T02:29:30.001Z,19.24
2018-09-19T02:31:24.264Z,19.39
2018-09-19T02:33:58.431Z,19.39
2018-09-19T02:34:58.493Z,19.46
2018-09-19T02:37:22.028Z,19.39
2018-09-19T02:38:22.413Z,19.31
2018-09-19T02:39:22.403Z,19.42
2018-09-19T02:40:22.399Z,19.47
2018-09-19T02:41:22.385Z,19.47
2018-09-19T02:43:55.633Z,19.50
2018-09-19T02:44:55.807Z,19.53
2018-09-19T02:46:50.017Z,19.31
2018-09-19T02:47:50.495Z,19.34
2018-09-19T02:49:44.758Z,19.27
2018-09-19T02:50:44.860Z,19.20
2018-09-19T02:52:39.430Z,19.25
2018-09-19T02:53:39.835Z,19.12
2018-09-19T02:55:34.397Z,19.17
2018-09-19T02:56:34.762Z,19.21
2018-09-19T02:58:28.727Z,19.15
2018-09-19T02:59:29.173Z,19.07
2018-09-19T03:01:23.210Z,18.96
2018-09-19T03:02:23.310Z,19.05
2018-09-19T03:04:18.078Z,19.06
2018-09-19T03:05:17.637Z,18.96
2018-09-19T03:07:11.611Z,18.94
2018-09-19T03:08:11.800Z,18.99
2018-09-19T03:10:06.365Z,18.97
2018-09-19T03:11:06.815Z,18.84
2018-09-19T03:13:01.316Z,18.93
2018-09-19T03:14:01.501Z,18.96
2018-09-19T03:15:55.419Z,18.84
2018-09-19T03:16:55.717Z,18.83
2018-09-19T03:18:50.312Z,18.76
2018-09-19T03:19:50.474Z,18.74
2018-09-19T03:21:45.142Z,18.78
2018-09-19T03:22:45.550Z,18.68
2018-09-19T03:24:39.709Z,18.75
2018-09-19T03:25:39.768Z,18.69
2018-09-19T03:26:40.173Z,18.68
2018-09-19T03:27:39.782Z,18.68
2018-09-19T03:28:40.380Z,18.59
2018-09-19T03:29:39.937Z,18.68
2018-09-19T03:30:41.939Z,18.76
2018-09-19T03:31:40.260Z,18.74
2018-09-19T03:32:39.851Z,18.51
2018-09-19T03:33:40.255Z,18.62
2018-09-19T03:34:39.478Z,18.60
2018-09-19T03:35:40.232Z,18.64
2018-09-19T03:36:40.196Z,18.62
2018-09-19T03:37:39.691Z,18.59
2018-09-19T03:38:40.378Z,18.53
2018-09-19T03:39:40.174Z,18.56
2018-09-19T03:40:46.159Z,18.60
2018-09-19T03:41:40.183Z,18.56
2018-09-19T03:42:40.179Z,18.56
2018-09-19T03:43:40.176Z,18.60
2018-09-19T03:44:40.433Z,18.50
2018-09-19T03:45:40.243Z,18.65
2018-09-19T03:46:40.385Z,18.57
2018-09-19T03:47:40.192Z,18.44
2018-09-19T03:48:40.179Z,18.59
2018-09-19T03:49:40.253Z,18.53
2018-09-19T03:50:40.713Z,18.42
2018-09-19T03:51:40.213Z,18.49
2018-09-19T03:52:40.187Z,18.44
2018-09-19T03:53:40.225Z,18.56
2018-09-19T03:54:40.198Z,18.54
2018-09-19T03:55:40.201Z,18.49
2018-09-19T03:56:40.218Z,18.39
2018-09-19T03:57:40.190Z,18.29
2018-09-19T03:58:40.220Z,18.28
2018-09-19T03:59:40.248Z,18.34
2018-09-19T04:00:40.218Z,18.38
2018-09-19T04:01:40.238Z,18.41
2018-09-19T04:02:40.240Z,18.44
2018-09-19T04:03:40.227Z,18.44
2018-09-19T04:04:40.173Z,18.50
2018-09-19T04:05:40.160Z,18.57
2018-09-19T04:06:40.191Z,18.59
2018-09-19T04:07:40.193Z,18.44
2018-09-19T04:08:40.183Z,18.49
2018-09-19T04:09:40.192Z,18.44
2018-09-19T04:10:40.188Z,18.39
2018-09-19T04:11:40.191Z,18.41
2018-09-19T04:12:40.210Z,18.38
2018-09-19T04:13:40.248Z,18.39
2018-09-19T04:14:40.192Z,18.25
2018-09-19T04:15:40.175Z,18.38
2018-09-19T04:16:40.186Z,18.28
2018-09-19T04:17:40.297Z,18.17
2018-09-19T04:18:40.208Z,18.13
2018-09-19T04:19:40.224Z,18.13
2018-09-19T04:20:40.178Z,18.29
2018-09-19T04:21:41.997Z,18.26
2018-09-19T04:22:40.206Z,18.32
2018-09-19T04:23:40.225Z,18.39
2018-09-19T04:24:40.392Z,18.31
2018-09-19T04:25:40.219Z,18.44
2018-09-19T04:26:40.208Z,18.47
2018-09-19T04:27:40.214Z,18.10
2018-09-19T04:28:40.183Z,18.14
2018-09-19T04:29:40.246Z,18.01
2018-09-19T04:30:40.227Z,17.99
2018-09-19T04:31:40.244Z,17.95
2018-09-19T04:32:40.203Z,18.01
2018-09-19T04:33:40.181Z,18.04
2018-09-19T04:34:40.227Z,17.99
2018-09-19T04:35:40.213Z,17.94
2018-09-19T04:36:40.182Z,17.95
2018-09-19T04:37:40.213Z,17.99
2018-09-19T04:38:40.204Z,17.98
2018-09-19T04:39:40.232Z,18.05
2018-09-19T04:40:40.214Z,18.19
2018-09-19T04:41:40.222Z,18.17
2018-09-19T04:42:40.223Z,18.19
2018-09-19T04:43:40.216Z,18.04
2018-09-19T04:44:39.697Z,18.05
2018-09-19T04:45:40.488Z,18.05
2018-09-19T04:46:40.217Z,17.95
2018-09-19T04:47:40.251Z,18.11
2018-09-19T04:48:40.219Z,17.96
2018-09-19T04:49:40.222Z,17.95
2018-09-19T04:50:40.236Z,17.86
2018-09-19T04:51:40.317Z,17.86
2018-09-19T04:52:40.235Z,18.01
2018-09-19T04:53:40.446Z,17.92
2018-09-19T04:54:40.223Z,17.98
2018-09-19T04:55:40.201Z,17.98
2018-09-19T04:56:40.165Z,17.92
2018-09-19T04:57:40.198Z,17.95
2018-09-19T04:58:40.227Z,17.80
2018-09-19T04:59:40.227Z,17.80
2018-09-19T05:00:40.179Z,17.87
2018-09-19T05:02:40.246Z,17.83
2018-09-19T05:03:40.220Z,17.91
2018-09-19T05:04:40.166Z,17.95
2018-09-19T05:05:40.263Z,17.99
2018-09-19T05:06:40.252Z,17.92
2018-09-19T05:07:40.758Z,17.95
2018-09-19T05:08:40.302Z,17.89
2018-09-19T05:09:40.258Z,17.80
2018-09-19T05:10:39.724Z,17.80
2018-09-19T05:11:40.250Z,17.92
2018-09-19T05:12:40.757Z,18.01
2018-09-19T05:13:40.498Z,18.02
2018-09-19T05:14:40.232Z,17.96
2018-09-19T05:15:40.749Z,17.84
2018-09-19T05:16:40.257Z,17.87
2018-09-19T05:17:40.275Z,17.91
2018-09-19T05:18:40.497Z,17.81
2018-09-19T05:19:40.323Z,17.83
2018-09-19T05:20:40.208Z,17.86
2018-09-19T05:21:41.246Z,17.84
2018-09-19T05:22:40.244Z,17.83
2018-09-19T05:23:40.183Z,17.89
2018-09-19T05:24:40.257Z,17.91
2018-09-19T05:25:40.243Z,17.99
2018-09-19T05:26:40.254Z,17.99
2018-09-19T05:27:40.273Z,17.91
2018-09-19T05:28:40.461Z,18.01
2018-09-19T05:29:40.231Z,17.98
2018-09-19T05:30:40.243Z,17.92
2018-09-19T05:31:40.362Z,18.01
2018-09-19T05:32:39.955Z,17.98
2018-09-19T05:33:41.772Z,17.87
2018-09-19T05:34:40.047Z,17.89
2018-09-19T05:35:40.063Z,17.89
2018-09-19T05:36:39.959Z,17.87
2018-09-19T05:37:41.767Z,17.77
2018-09-19T05:38:41.788Z,17.95
2018-09-19T05:39:39.883Z,17.87
2018-09-19T05:40:39.888Z,17.91
2018-09-19T05:41:40.537Z,17.94
2018-09-19T05:42:40.466Z,18.01
2018-09-19T05:43:39.901Z,17.95
2018-09-19T05:44:39.860Z,17.96
2018-09-19T05:45:39.825Z,17.83
2018-09-19T05:46:39.934Z,17.81
2018-09-19T05:47:39.952Z,17.73
2018-09-19T05:48:40.425Z,17.73
2018-09-19T05:49:40.229Z,17.79
2018-09-19T05:50:40.465Z,17.83
2018-09-19T05:51:40.002Z,17.81
2018-09-19T05:52:39.919Z,17.74
2018-09-19T05:53:40.209Z,17.87
2018-09-19T05:54:40.630Z,17.77
2018-09-19T05:55:40.268Z,17.80
2018-09-19T05:56:40.179Z,17.80
2018-09-19T05:57:40.037Z,17.92
2018-09-19T05:58:40.474Z,17.95
2018-09-19T05:59:40.467Z,17.99
2018-09-19T06:00:40.277Z,17.87
2018-09-19T06:01:40.130Z,17.91
2018-09-19T06:02:40.062Z,17.77
2018-09-19T06:03:40.106Z,17.73
2018-09-19T06:04:40.470Z,17.83
2018-09-19T06:05:47.412Z,17.86
2018-09-19T06:06:39.831Z,17.91
2018-09-19T06:08:34.391Z,17.79
2018-09-19T06:09:34.662Z,17.81
2018-09-19T06:10:36.385Z,17.83
2018-09-19T06:11:34.152Z,17.87
2018-09-19T06:12:34.880Z,17.87
2018-09-19T06:13:34.344Z,17.87
2018-09-19T06:14:34.153Z,17.83
2018-09-19T06:15:34.535Z,17.87
2018-09-19T06:16:34.400Z,17.91
2018-09-19T06:18:59.947Z,17.95
2018-09-19T06:19:59.965Z,18.05
2018-09-19T06:20:59.981Z,17.99
2018-09-19T06:22:00.243Z,18.02
2018-09-19T06:23:00.010Z,17.99
2018-09-19T06:23:59.319Z,18.04
2018-09-19T06:24:59.946Z,18.05
2018-09-19T06:26:00.139Z,18.11
2018-09-19T06:26:59.979Z,18.16
2018-09-19T06:28:00.248Z,18.10
2018-09-19T06:28:59.736Z,18.20
2018-09-19T06:29:59.763Z,18.28
2018-09-19T06:31:00.247Z,18.26
2018-09-19T06:31:59.990Z,18.36
2018-09-19T06:33:00.425Z,18.31
2018-09-19T06:33:59.735Z,18.46
2018-09-19T06:35:14.756Z,18.44
2018-09-19T06:36:01.984Z,18.46
2018-09-19T06:37:00.292Z,18.47
2018-09-19T06:38:00.292Z,18.47
2018-09-19T06:38:59.699Z,18.49
2018-09-19T06:39:59.752Z,18.47
2018-09-19T06:41:00.392Z,18.65
2018-09-19T06:41:59.711Z,18.50
2018-09-19T06:42:59.998Z,18.68
2018-09-19T06:44:01.959Z,18.66
2018-09-19T06:44:58.216Z,18.62
2018-09-19T06:45:58.217Z,18.64
2018-09-19T06:46:58.253Z,18.71
2018-09-19T06:47:58.299Z,18.69
2018-09-19T06:48:59.346Z,18.65
2018-09-19T06:49:59.279Z,18.75
2018-09-19T06:51:00.349Z,18.86
2018-09-19T06:51:59.801Z,18.86
2018-09-19T06:52:59.712Z,18.91
2018-09-19T06:53:59.980Z,18.93
2018-09-19T06:54:59.203Z,18.97
2018-09-19T06:55:59.700Z,18.93
2018-09-19T06:56:59.743Z,18.94
2018-09-19T06:57:59.682Z,18.90
2018-09-19T06:58:59.716Z,18.90
2018-09-19T06:59:59.734Z,18.96
2018-09-19T07:00:59.739Z,19.07
2018-09-19T07:02:00.015Z,19.02
2018-09-19T07:02:59.747Z,19.20
2018-09-19T07:04:00.261Z,19.24
2018-09-19T07:05:00.528Z,19.20
2018-09-19T07:05:59.950Z,19.25
2018-09-19T07:07:00.384Z,19.17
2018-09-19T07:08:00.004Z,19.23
2018-09-19T07:09:00.414Z,19.13
2018-09-19T07:09:59.741Z,19.21
2018-09-19T07:11:00.352Z,19.24
2018-09-19T07:11:59.712Z,19.28
2018-09-19T07:12:59.961Z,19.38
2018-09-19T07:14:00.251Z,19.40
2018-09-19T07:16:32.021Z,19.46
2018-09-19T07:17:32.664Z,19.47
2018-09-19T07:19:26.539Z,19.50
2018-09-19T07:20:27.276Z,19.58
2018-09-19T07:22:21.560Z,19.61
2018-09-19T07:23:21.453Z,19.61
2018-09-19T07:25:53.948Z,19.60
2018-09-19T07:26:54.399Z,19.70
2018-09-19T07:28:49.082Z,19.83
2018-09-19T07:31:57.602Z,19.89
2018-09-19T07:32:57.363Z,20.01
2018-09-19T07:34:52.115Z,19.95
2018-09-19T07:35:52.343Z,20.05
2018-09-19T07:37:45.797Z,20.10
2018-09-19T07:38:45.875Z,20.10
2018-09-19T07:40:40.606Z,20.23
2018-09-19T07:41:40.516Z,20.25
2018-09-19T07:43:35.137Z,20.15
2018-09-19T07:44:35.834Z,20.23
2018-09-19T07:46:32.607Z,20.25
2018-09-19T07:47:30.502Z,20.34
2018-09-19T07:49:23.990Z,20.37
2018-09-19T07:50:24.672Z,20.42
2018-09-19T07:52:19.652Z,20.31
2018-09-19T07:53:19.352Z,20.42
2018-09-19T07:55:18.718Z,20.44
2018-09-19T07:56:19.431Z,20.60
2018-09-19T07:57:18.814Z,20.61
2018-09-19T07:58:18.771Z,20.56
2018-09-19T07:59:18.977Z,20.58
2018-09-19T08:00:18.985Z,20.64
2018-09-19T08:01:19.541Z,20.78
2018-09-19T08:02:19.328Z,20.79
2018-09-19T08:03:19.191Z,20.78
2018-09-19T08:04:18.823Z,20.85
2018-09-19T08:05:19.385Z,20.90
2018-09-19T08:06:19.480Z,20.93
2018-09-19T08:07:19.326Z,20.85
2018-09-19T08:08:19.331Z,21.05
2018-09-19T08:09:19.478Z,21.00
2018-09-19T08:10:19.096Z,21.01
2018-09-19T08:11:19.013Z,20.97
2018-09-19T08:12:19.328Z,21.09
2018-09-19T08:13:19.327Z,21.15
2018-09-19T08:14:18.987Z,21.16
2018-09-19T08:15:19.337Z,21.24
2018-09-19T08:16:19.323Z,21.34
2018-09-19T08:17:20.048Z,21.34
2018-09-19T08:18:19.324Z,21.37
2018-09-19T08:19:19.598Z,21.42
2018-09-19T08:20:18.980Z,21.40
2018-09-19T08:21:18.493Z,21.45
2018-09-19T08:22:21.023Z,21.48
2018-09-19T08:23:18.783Z,21.46
2018-09-19T08:24:19.072Z,21.45
2018-09-19T08:25:18.876Z,21.53
2018-09-19T08:26:19.419Z,21.56
2018-09-19T08:27:21.326Z,21.59
2018-09-19T08:28:19.306Z,21.61
2018-09-19T08:29:18.920Z,21.71
2018-09-19T08:30:18.831Z,21.74
2018-09-19T08:31:18.990Z,21.70
2018-09-19T08:32:18.850Z,21.81
2018-09-19T08:33:19.046Z,21.82
2018-09-19T08:34:18.806Z,21.77
2018-09-19T08:35:18.750Z,21.86
2018-09-19T08:36:19.337Z,21.96
2018-09-19T08:37:19.216Z,21.89
2018-09-19T08:38:19.091Z,22.05
2018-09-19T08:39:19.505Z,22.02
2018-09-19T08:40:19.375Z,22.08
2018-09-19T08:41:19.106Z,22.12
2018-09-19T08:42:19.322Z,22.06
2018-09-19T08:43:19.543Z,22.17
2018-09-19T08:44:19.036Z,22.12
2018-09-19T08:45:19.089Z,22.12
2018-09-19T08:46:19.481Z,22.19
2018-09-19T08:47:54.581Z,22.26
2018-09-19T08:48:18.971Z,22.23
2018-09-19T08:49:19.437Z,22.29
2018-09-19T08:50:19.087Z,22.36
2018-09-19T08:51:19.520Z,22.39
2018-09-19T08:52:19.012Z,22.39
2018-09-19T08:53:18.477Z,22.42
2018-09-19T08:54:19.063Z,22.52
2018-09-19T08:55:19.121Z,22.48
2018-09-19T08:56:18.853Z,22.64
2018-09-19T08:57:21.066Z,22.60
2018-09-19T08:58:19.077Z,22.66
2018-09-19T08:59:19.117Z,22.69
2018-09-19T09:00:20.023Z,22.76
2018-09-19T09:01:18.918Z,22.75
2018-09-19T09:02:18.741Z,22.81
2018-09-19T09:03:18.880Z,22.84
2018-09-19T09:04:19.159Z,22.86
2018-09-19T09:05:19.548Z,22.89
2018-09-19T09:06:18.823Z,22.91
2018-09-19T09:07:19.352Z,22.99
2018-09-19T09:08:19.457Z,23.03
2018-09-19T09:09:18.793Z,23.04
2018-09-19T09:10:19.101Z,23.01
2018-09-19T09:11:18.759Z,23.06
2018-09-19T09:12:19.012Z,23.07
2018-09-19T09:13:18.918Z,23.11
2018-09-19T09:14:19.347Z,23.14
2018-09-19T09:15:19.381Z,23.22
2018-09-19T09:16:19.500Z,23.23
2018-09-19T09:17:18.785Z,23.32
2018-09-19T09:18:18.808Z,23.22
2018-09-19T09:19:19.125Z,23.35
2018-09-19T09:20:20.832Z,23.31
2018-09-19T09:21:19.363Z,23.53
2018-09-19T09:22:18.785Z,23.52
2018-09-19T09:23:19.048Z,23.53
2018-09-19T09:24:19.085Z,23.44
2018-09-19T09:25:19.048Z,23.42
2018-09-19T09:26:19.381Z,23.41
2018-09-19T09:27:18.991Z,23.59
2018-09-19T09:28:19.110Z,23.59
2018-09-19T09:29:19.073Z,23.62
2018-09-19T09:30:18.964Z,23.57
2018-09-19T09:31:18.882Z,23.60
2018-09-19T09:32:19.011Z,23.60
2018-09-19T09:33:18.800Z,23.64
2018-09-19T09:34:19.463Z,23.75
2018-09-19T09:35:18.846Z,23.84
2018-09-19T09:36:18.770Z,23.84
2018-09-19T09:37:18.830Z,23.87
2018-09-19T09:38:18.815Z,24.04
2018-09-19T09:39:19.073Z,23.93
2018-09-19T09:40:18.872Z,24.06
2018-09-19T09:41:19.098Z,24.05
2018-09-19T09:42:19.010Z,24.09
2018-09-19T09:43:19.055Z,24.12
2018-09-19T09:44:19.014Z,24.15
2018-09-19T09:45:19.529Z,24.21
2018-09-19T09:46:18.784Z,24.23
2018-09-19T09:47:19.052Z,24.21
2018-09-19T09:48:19.345Z,24.21
2018-09-19T09:49:19.807Z,24.29
2018-09-19T09:50:18.880Z,24.30
2018-09-19T09:51:19.123Z,24.48
2018-09-19T09:52:18.561Z,24.48
2018-09-19T09:53:20.087Z,24.53
2018-09-19T09:54:18.823Z,24.59
2018-09-19T09:55:19.420Z,24.75
2018-09-19T09:56:18.762Z,24.67
2018-09-19T09:57:18.791Z,24.75
2018-09-19T09:58:18.914Z,24.75
2018-09-19T09:59:19.072Z,24.66
2018-09-19T10:00:19.061Z,24.66
2018-09-19T10:01:18.820Z,24.80
2018-09-19T10:02:19.513Z,24.71
2018-09-19T10:03:18.834Z,24.86
2018-09-19T10:04:18.532Z,24.93
2018-09-19T10:05:19.409Z,24.97
2018-09-19T10:06:18.875Z,24.93
2018-09-19T10:07:18.874Z,25.02
2018-09-19T10:08:18.454Z,25.16
2018-09-19T10:09:21.074Z,25.19
2018-09-19T10:10:19.070Z,25.35
2018-09-19T10:11:19.374Z,25.24
2018-09-19T10:12:19.236Z,25.31
2018-09-19T10:13:18.843Z,25.53
2018-09-19T10:14:19.349Z,25.49
2018-09-19T10:15:19.118Z,25.53
2018-09-19T10:16:19.452Z,25.45
2018-09-19T10:17:19.613Z,25.54
2018-09-19T10:18:19.037Z,25.53
2018-09-19T10:19:19.729Z,25.61
2018-09-19T10:20:19.362Z,25.54
2018-09-19T10:21:19.113Z,25.59
2018-09-19T10:22:18.871Z,25.63
2018-09-19T10:23:19.818Z,25.66
2018-09-19T10:24:18.918Z,25.83
2018-09-19T10:25:18.918Z,25.93
2018-09-19T10:26:19.037Z,25.96
2018-09-19T10:27:18.845Z,25.89
2018-09-19T10:30:20.089Z,25.72
2018-09-19T10:31:19.934Z,25.69
2018-09-19T10:33:13.729Z,25.91
2018-09-19T10:34:14.351Z,26.04
2018-09-19T10:36:08.854Z,25.85
2018-09-19T10:37:08.861Z,26.19
2018-09-19T10:39:03.561Z,26.46
2018-09-19T10:40:04.266Z,26.59
2018-09-19T10:41:59.229Z,26.64
2018-09-19T10:42:59.496Z,26.59
2018-09-19T10:44:53.295Z,26.83
2018-09-19T10:47:20.661Z,26.69
2018-09-19T10:48:20.560Z,26.78
2018-09-19T10:50:14.692Z,26.94
2018-09-19T10:51:15.040Z,26.90
2018-09-19T10:53:09.609Z,27.24
2018-09-19T10:54:10.106Z,27.24
2018-09-19T10:55:10.166Z,27.23
2018-09-19T10:56:10.147Z,27.27
2018-09-19T10:57:09.860Z,27.01
2018-09-19T10:58:10.139Z,26.94
2018-09-19T10:59:09.791Z,27.08
2018-09-19T11:00:12.143Z,27.35
2018-09-19T11:01:10.018Z,27.55
2018-09-19T11:02:10.148Z,27.68
2018-09-19T11:03:09.981Z,27.50
2018-09-19T11:04:11.747Z,27.24
2018-09-19T11:05:09.711Z,26.93
2018-09-19T11:06:10.172Z,26.79
2018-09-19T11:07:09.911Z,26.69
2018-09-19T11:08:09.718Z,26.91
2018-09-19T11:09:09.878Z,26.87
2018-09-19T11:10:10.135Z,27.39
2018-09-19T11:11:11.743Z,27.49
2018-09-19T11:12:11.689Z,27.74
2018-09-19T11:13:10.639Z,27.95
2018-09-19T11:14:09.691Z,27.86
2018-09-19T11:15:09.690Z,28.08
2018-09-19T11:16:09.629Z,28.06
2018-09-19T11:17:09.959Z,28.43
2018-09-19T11:18:09.734Z,28.62
2018-09-19T11:19:09.692Z,28.70
2018-09-19T11:20:10.236Z,28.80
2018-09-19T11:21:10.494Z,29.49
2018-09-19T11:22:10.491Z,29.64
2018-09-19T11:23:09.935Z,29.67
2018-09-19T11:24:10.510Z,29.29
2018-09-19T11:25:10.155Z,28.72
2018-09-19T11:26:09.926Z,27.98
2018-09-19T11:27:10.004Z,27.76
2018-09-19T11:28:10.162Z,27.80
2018-09-19T11:29:09.897Z,27.58
2018-09-19T11:30:11.940Z,27.49
2018-09-19T11:31:10.199Z,27.27
2018-09-19T11:32:11.931Z,27.38
2018-09-19T11:33:10.157Z,28.30
2018-09-19T11:34:10.263Z,29.37
2018-09-19T11:35:10.515Z,28.40
2018-09-19T11:36:10.245Z,27.84
2018-09-19T11:37:09.452Z,27.71
2018-09-19T11:38:10.251Z,29.18
2018-09-19T11:39:09.666Z,29.23
2018-09-19T11:40:10.522Z,28.61
2018-09-19T11:41:10.735Z,28.17
2018-09-19T11:42:10.205Z,29.17
2018-09-19T11:43:10.675Z,28.52
2018-09-19T11:44:10.505Z,28.14
2018-09-19T11:45:10.511Z,28.61
2018-09-19T11:46:09.999Z,30.00
2018-09-19T11:47:10.018Z,31.04
2018-09-19T11:48:10.223Z,30.32
2018-09-19T11:49:10.090Z,29.74
2018-09-19T11:50:10.870Z,29.89
2018-09-19T11:51:10.051Z,29.62
2018-09-19T11:52:10.214Z,28.67
2018-09-19T11:53:10.174Z,30.61
2018-09-19T11:54:10.273Z,31.60
2018-09-19T11:55:09.993Z,30.96
2018-09-19T11:56:10.254Z,30.40
2018-09-19T11:57:10.171Z,31.22
2018-09-19T11:58:10.268Z,30.37
2018-09-19T11:59:10.002Z,29.55
2018-09-19T12:00:10.299Z,29.73
2018-09-19T12:01:10.178Z,29.84
2018-09-19T12:02:10.537Z,30.53
2018-09-19T12:03:10.006Z,29.85
2018-09-19T12:04:30.282Z,29.02
2018-09-19T12:05:10.220Z,29.23
2018-09-19T12:06:09.941Z,28.92
2018-09-19T12:07:12.281Z,28.65
2018-09-19T12:08:10.219Z,28.28
2018-09-19T12:09:10.545Z,28.03
2018-09-19T12:10:09.995Z,29.49
2018-09-19T12:11:09.742Z,30.64
2018-09-19T12:12:12.747Z,29.10
2018-09-19T12:13:09.725Z,28.05
2018-09-19T12:14:10.263Z,28.24
2018-09-19T12:15:12.230Z,29.25
2018-09-19T12:16:10.285Z,29.74
2018-09-19T12:17:10.208Z,31.07
2018-09-19T12:18:12.626Z,29.88
2018-09-19T12:19:12.223Z,31.79
2018-09-19T12:20:09.694Z,32.28
2018-09-19T12:21:10.550Z,33.79
2018-09-19T12:22:10.016Z,34.53
2018-09-19T12:23:11.731Z,34.19
2018-09-19T12:24:10.030Z,34.45
2018-09-19T12:25:12.090Z,35.65
2018-09-19T12:26:10.262Z,36.31
2018-09-19T12:27:10.694Z,35.15
2018-09-19T12:28:10.039Z,33.70
2018-09-19T12:29:09.639Z,32.36
2018-09-19T12:30:11.156Z,33.60
2018-09-19T12:31:10.226Z,33.21
2018-09-19T12:32:10.196Z,33.72
2018-09-19T12:33:10.217Z,32.66
2018-09-19T12:34:10.072Z,32.41
2018-09-19T12:35:10.262Z,33.34
2018-09-19T12:36:37.737Z,33.12
2018-09-19T12:38:45.399Z,33.78
2018-09-19T12:39:44.829Z,33.79
2018-09-19T12:41:41.634Z,32.81
2018-09-19T12:42:43.956Z,31.74
2018-09-19T12:43:41.918Z,31.09
2018-09-19T12:44:41.600Z,30.86
2018-09-19T12:45:42.194Z,31.52
2018-09-19T12:46:41.243Z,33.05
2018-09-19T12:47:41.637Z,34.40
2018-09-19T12:48:44.707Z,35.09
2018-09-19T12:49:41.938Z,34.64
2018-09-19T12:50:41.926Z,36.11
2018-09-19T12:51:41.653Z,35.46
2018-09-19T12:52:42.250Z,35.83
2018-09-19T12:53:42.229Z,35.55
2018-09-19T12:54:42.137Z,36.05
2018-09-19T12:55:42.933Z,36.79
2018-09-19T12:56:41.875Z,35.91
2018-09-19T12:57:42.394Z,35.87
2018-09-19T12:58:42.416Z,35.71
2018-09-19T12:59:41.894Z,35.61
2018-09-19T13:00:42.755Z,36.37
2018-09-19T13:01:41.371Z,37.68
2018-09-19T13:02:42.276Z,36.16
2018-09-19T13:03:42.776Z,35.31
2018-09-19T13:04:42.244Z,34.73
2018-09-19T13:05:42.482Z,35.24
2018-09-19T13:06:41.402Z,35.25
2018-09-19T13:07:41.980Z,34.06
2018-09-19T13:08:42.357Z,35.22
2018-09-19T13:09:41.962Z,35.27
2018-09-19T13:10:42.872Z,36.11
2018-09-19T13:11:42.971Z,35.62
2018-09-19T13:12:42.741Z,35.73
2018-09-19T13:13:42.517Z,33.11
2018-09-19T13:14:42.145Z,34.28
2018-09-19T13:15:42.533Z,33.72
2018-09-19T13:16:42.504Z,34.93
2018-09-19T13:17:42.359Z,34.84
2018-09-19T13:18:42.351Z,35.37
2018-09-19T13:19:43.101Z,35.55
2018-09-19T13:20:42.311Z,36.57
2018-09-19T13:24:42.094Z,34.48
2018-09-19T13:25:41.713Z,33.77
2018-09-19T13:26:41.578Z,34.86
2018-09-19T13:27:40.886Z,35.42
2018-09-19T13:28:41.235Z,35.02
2018-09-19T13:29:41.351Z,34.34
2018-09-19T13:31:02.868Z,34.65
2018-09-19T13:31:41.338Z,34.65
2018-09-19T13:32:41.919Z,35.64
2018-09-19T13:33:41.889Z,36.19
2018-09-19T13:34:41.522Z,37.13
2018-09-19T13:35:42.877Z,36.43
2018-09-19T13:36:42.292Z,36.40
2018-09-19T13:37:41.006Z,36.52
2018-09-19T13:38:41.841Z,35.03
2018-09-19T13:39:41.477Z,35.69
2018-09-19T13:40:41.832Z,34.78
2018-09-19T13:41:41.916Z,35.24
2018-09-19T13:42:41.560Z,35.99
2018-09-19T13:43:41.341Z,36.31
2018-09-19T13:44:44.464Z,35.44
2018-09-19T13:45:48.329Z,33.66
2018-09-19T13:46:42.304Z,32.91
2018-09-19T13:47:41.745Z,34.38
2018-09-19T13:48:41.808Z,34.24
2018-09-19T13:49:41.840Z,34.01
2018-09-19T13:50:41.593Z,32.91
2018-09-19T13:51:41.550Z,33.77
2018-09-19T13:52:41.560Z,33.90
2018-09-19T13:53:41.668Z,34.48
2018-09-19T13:54:42.163Z,33.28
2018-09-19T13:55:41.625Z,32.72
2018-09-19T13:56:41.844Z,31.82
2018-09-19T13:57:42.056Z,33.02
2018-09-19T13:58:41.868Z,33.17
2018-09-19T13:59:42.615Z,33.89
2018-09-19T14:00:41.806Z,33.71
2018-09-19T14:01:41.898Z,34.27
2018-09-19T14:02:41.837Z,34.34
2018-09-19T14:03:41.800Z,34.37
2018-09-19T14:04:42.268Z,35.69
2018-09-19T14:05:41.807Z,35.00
2018-09-19T14:06:41.704Z,34.71
2018-09-19T14:07:41.655Z,35.49
2018-09-19T14:08:42.167Z,35.83
2018-09-19T14:09:41.439Z,36.35
2018-09-19T14:10:41.985Z,35.96
2018-09-19T14:11:41.847Z,34.80
2018-09-19T14:12:41.794Z,35.76
2018-09-19T14:13:41.753Z,35.96
2018-09-19T14:14:41.824Z,35.06
2018-09-19T14:15:41.651Z,35.22
2018-09-19T14:16:56.355Z,34.65
2018-09-19T14:17:41.735Z,35.12
2018-09-19T14:18:41.819Z,35.39
2018-09-19T14:19:42.176Z,34.71
2018-09-19T14:20:45.363Z,33.96
2018-09-19T14:21:44.176Z,34.33
2018-09-19T14:22:41.906Z,35.73
2018-09-19T14:23:42.161Z,35.89
2018-09-19T14:24:42.350Z,35.20
2018-09-19T14:25:41.918Z,34.16
2018-09-19T14:26:42.171Z,34.84
2018-09-19T14:27:42.693Z,35.36
2018-09-19T14:28:42.362Z,34.15
2018-09-19T14:29:42.360Z,33.86
2018-09-19T14:30:42.701Z,32.84
2018-09-19T14:31:44.377Z,33.44
2018-09-19T14:32:42.266Z,34.33